sensor_id;sensor_type;location;lat;lon;timestamp;P1;durP1;ratioP1;P2;durP2;ratioP2
71947;SDS011;63257;55.082;38.772;2023-08-07T00:00:35;9.52;;;7.00;;
71947;SDS011;63257;55.082;38.772;2023-08-07T00:03:01;12.47;;;7.30;;
71947;SDS011;63257;55.082;38.772;2023-08-07T00:05:28;9.80;;;6.80;;
71947;SDS011;63257;55.082;38.772;2023-08-07T00:07:54;10.88;;;7.80;;
71947;SDS011;63257;55.082;38.772;2023-08-07T00:10:20;9.23;;;7.47;;
71947;SDS011;63257;55.082;38.772;2023-08-07T00:12:45;10.85;;;7.32;;
71947;SDS011;63257;55.082;38.772;2023-08-07T00:15:11;13.30;;;7.37;;
71947;SDS011;63257;55.082;38.772;2023-08-07T00:17:37;11.45;;;7.97;;
71947;SDS011;63257;55.082;38.772;2023-08-07T00:20:03;12.95;;;7.75;;
71947;SDS011;63257;55.082;38.772;2023-08-07T00:22:30;10.50;;;7.50;;
71947;SDS011;63257;55.082;38.772;2023-08-07T00:24:56;11.10;;;7.60;;
71947;SDS011;63257;55.082;38.772;2023-08-07T00:27:22;15.45;;;7.68;;
71947;SDS011;63257;55.082;38.772;2023-08-07T00:29:48;12.98;;;7.30;;
71947;SDS011;63257;55.082;38.772;2023-08-07T00:32:13;12.90;;;7.20;;
71947;SDS011;63257;55.082;38.772;2023-08-07T00:34:40;10.63;;;7.15;;
71947;SDS011;63257;55.082;38.772;2023-08-07T00:37:06;14.57;;;7.73;;
71947;SDS011;63257;55.082;38.772;2023-08-07T00:39:33;9.15;;;6.88;;
71947;SDS011;63257;55.082;38.772;2023-08-07T00:41:59;12.48;;;8.00;;
71947;SDS011;63257;55.082;38.772;2023-08-07T00:44:25;10.87;;;7.37;;
71947;SDS011;63257;55.082;38.772;2023-08-07T00:46:51;10.80;;;7.35;;
71947;SDS011;63257;55.082;38.772;2023-08-07T00:49:17;10.30;;;7.63;;
71947;SDS011;63257;55.082;38.772;2023-08-07T00:51:45;10.75;;;7.50;;
71947;SDS011;63257;55.082;38.772;2023-08-07T00:54:12;10.77;;;7.33;;
71947;SDS011;63257;55.082;38.772;2023-08-07T00:56:40;13.45;;;7.45;;
71947;SDS011;63257;55.082;38.772;2023-08-07T00:59:06;12.25;;;7.82;;
71947;SDS011;63257;55.082;38.772;2023-08-07T01:01:32;11.25;;;7.40;;
71947;SDS011;63257;55.082;38.772;2023-08-07T01:03:59;9.57;;;7.05;;
71947;SDS011;63257;55.082;38.772;2023-08-07T01:06:26;10.67;;;7.27;;
71947;SDS011;63257;55.082;38.772;2023-08-07T01:08:52;11.77;;;7.45;;
71947;SDS011;63257;55.082;38.772;2023-08-07T01:19:31;11.57;;;7.60;;
71947;SDS011;63257;55.082;38.772;2023-08-07T01:22:08;11.70;;;7.47;;
71947;SDS011;63257;55.082;38.772;2023-08-07T01:24:38;12.95;;;7.50;;
71947;SDS011;63257;55.082;38.772;2023-08-07T01:32:47;11.35;;;7.30;;
71947;SDS011;63257;55.082;38.772;2023-08-07T01:35:15;10.48;;;6.85;;
71947;SDS011;63257;55.082;38.772;2023-08-07T01:37:42;10.93;;;7.38;;
71947;SDS011;63257;55.082;38.772;2023-08-07T01:40:10;11.35;;;7.70;;
71947;SDS011;63257;55.082;38.772;2023-08-07T01:42:39;12.57;;;8.00;;
71947;SDS011;63257;55.082;38.772;2023-08-07T01:45:05;9.95;;;7.50;;
71947;SDS011;63257;55.082;38.772;2023-08-07T01:47:33;11.18;;;7.85;;
71947;SDS011;63257;55.082;38.772;2023-08-07T01:49:59;11.18;;;7.68;;
71947;SDS011;63257;55.082;38.772;2023-08-07T01:52:25;14.17;;;8.07;;
71947;SDS011;63257;55.082;38.772;2023-08-07T01:54:51;11.52;;;7.78;;
71947;SDS011;63257;55.082;38.772;2023-08-07T01:57:17;11.73;;;7.82;;
71947;SDS011;63257;55.082;38.772;2023-08-07T01:59:43;11.57;;;7.85;;
71947;SDS011;63257;55.082;38.772;2023-08-07T02:02:10;10.90;;;7.22;;
71947;SDS011;63257;55.082;38.772;2023-08-07T02:04:36;12.90;;;7.70;;
71947;SDS011;63257;55.082;38.772;2023-08-07T02:07:02;9.93;;;7.65;;
71947;SDS011;63257;55.082;38.772;2023-08-07T02:09:27;11.38;;;7.70;;
71947;SDS011;63257;55.082;38.772;2023-08-07T02:11:53;13.57;;;8.20;;
71947;SDS011;63257;55.082;38.772;2023-08-07T02:14:19;10.77;;;7.53;;
71947;SDS011;63257;55.082;38.772;2023-08-07T02:16:45;11.10;;;7.57;;
71947;SDS011;63257;55.082;38.772;2023-08-07T02:19:12;12.10;;;7.80;;
71947;SDS011;63257;55.082;38.772;2023-08-07T02:21:38;12.02;;;8.20;;
71947;SDS011;63257;55.082;38.772;2023-08-07T02:24:04;13.30;;;8.03;;
71947;SDS011;63257;55.082;38.772;2023-08-07T02:26:31;14.15;;;8.32;;
71947;SDS011;63257;55.082;38.772;2023-08-07T02:28:58;11.02;;;8.10;;
71947;SDS011;63257;55.082;38.772;2023-08-07T02:31:24;10.77;;;7.97;;
71947;SDS011;63257;55.082;38.772;2023-08-07T02:33:50;13.30;;;8.33;;
71947;SDS011;63257;55.082;38.772;2023-08-07T02:36:16;12.48;;;8.10;;
71947;SDS011;63257;55.082;38.772;2023-08-07T02:38:42;10.33;;;7.63;;
71947;SDS011;63257;55.082;38.772;2023-08-07T02:41:07;11.50;;;8.18;;
71947;SDS011;63257;55.082;38.772;2023-08-07T02:43:34;12.68;;;7.93;;
71947;SDS011;63257;55.082;38.772;2023-08-07T02:46:00;12.17;;;7.93;;
71947;SDS011;63257;55.082;38.772;2023-08-07T02:48:27;12.10;;;8.30;;
71947;SDS011;63257;55.082;38.772;2023-08-07T02:50:53;11.05;;;8.27;;
71947;SDS011;63257;55.082;38.772;2023-08-07T02:53:19;13.18;;;8.25;;
71947;SDS011;63257;55.082;38.772;2023-08-07T02:55:44;12.87;;;8.50;;
71947;SDS011;63257;55.082;38.772;2023-08-07T02:58:10;12.90;;;8.13;;
71947;SDS011;63257;55.082;38.772;2023-08-07T03:00:36;12.13;;;8.30;;
71947;SDS011;63257;55.082;38.772;2023-08-07T03:03:02;12.90;;;8.37;;
71947;SDS011;63257;55.082;38.772;2023-08-07T03:05:28;13.45;;;7.97;;
71947;SDS011;63257;55.082;38.772;2023-08-07T03:07:55;12.32;;;7.70;;
71947;SDS011;63257;55.082;38.772;2023-08-07T03:10:20;10.77;;;8.07;;
71947;SDS011;63257;55.082;38.772;2023-08-07T03:12:46;14.75;;;8.35;;
71947;SDS011;63257;55.082;38.772;2023-08-07T03:15:12;14.60;;;7.90;;
71947;SDS011;63257;55.082;38.772;2023-08-07T03:17:38;11.95;;;8.05;;
71947;SDS011;63257;55.082;38.772;2023-08-07T03:20:04;11.70;;;7.97;;
71947;SDS011;63257;55.082;38.772;2023-08-07T03:22:31;14.77;;;8.98;;
71947;SDS011;63257;55.082;38.772;2023-08-07T03:24:57;11.93;;;8.10;;
71947;SDS011;63257;55.082;38.772;2023-08-07T03:27:23;8.85;;;7.57;;
71947;SDS011;63257;55.082;38.772;2023-08-07T03:29:49;14.15;;;7.32;;
71947;SDS011;63257;55.082;38.772;2023-08-07T03:32:15;12.05;;;8.15;;
71947;SDS011;63257;55.082;38.772;2023-08-07T03:34:41;12.63;;;7.78;;
71947;SDS011;63257;55.082;38.772;2023-08-07T03:37:07;11.83;;;8.47;;
71947;SDS011;63257;55.082;38.772;2023-08-07T03:39:33;12.63;;;8.23;;
71947;SDS011;63257;55.082;38.772;2023-08-07T03:41:59;13.67;;;8.03;;
71947;SDS011;63257;55.082;38.772;2023-08-07T03:44:25;13.27;;;8.18;;
71947;SDS011;63257;55.082;38.772;2023-08-07T03:46:50;13.38;;;8.05;;
71947;SDS011;63257;55.082;38.772;2023-08-07T03:49:21;12.07;;;8.17;;
71947;SDS011;63257;55.082;38.772;2023-08-07T03:51:46;10.02;;;7.75;;
71947;SDS011;63257;55.082;38.772;2023-08-07T03:54:12;13.43;;;8.95;;
71947;SDS011;63257;55.082;38.772;2023-08-07T03:56:38;11.33;;;8.40;;
71947;SDS011;63257;55.082;38.772;2023-08-07T03:59:04;12.68;;;9.23;;
71947;SDS011;63257;55.082;38.772;2023-08-07T04:01:31;12.10;;;8.88;;
71947;SDS011;63257;55.082;38.772;2023-08-07T04:03:56;11.73;;;7.77;;
71947;SDS011;63257;55.082;38.772;2023-08-07T04:06:22;11.55;;;7.30;;
71947;SDS011;63257;55.082;38.772;2023-08-07T04:08:48;10.30;;;7.43;;
71947;SDS011;63257;55.082;38.772;2023-08-07T04:11:14;11.80;;;7.57;;
71947;SDS011;63257;55.082;38.772;2023-08-07T04:13:40;11.00;;;7.07;;
71947;SDS011;63257;55.082;38.772;2023-08-07T04:16:08;10.68;;;7.38;;
71947;SDS011;63257;55.082;38.772;2023-08-07T04:18:33;14.30;;;7.70;;
71947;SDS011;63257;55.082;38.772;2023-08-07T04:21:01;10.38;;;7.20;;
71947;SDS011;63257;55.082;38.772;2023-08-07T04:23:28;13.15;;;7.60;;
71947;SDS011;63257;55.082;38.772;2023-08-07T04:25:53;12.20;;;7.53;;
71947;SDS011;63257;55.082;38.772;2023-08-07T04:28:20;12.98;;;7.97;;
71947;SDS011;63257;55.082;38.772;2023-08-07T04:30:49;15.38;;;8.07;;
71947;SDS011;63257;55.082;38.772;2023-08-07T04:33:19;11.07;;;7.22;;
71947;SDS011;63257;55.082;38.772;2023-08-07T04:35:46;10.60;;;7.20;;
71947;SDS011;63257;55.082;38.772;2023-08-07T04:38:13;16.67;;;10.13;;
71947;SDS011;63257;55.082;38.772;2023-08-07T04:40:49;18.13;;;11.25;;
71947;SDS011;63257;55.082;38.772;2023-08-07T04:43:15;12.88;;;7.00;;
71947;SDS011;63257;55.082;38.772;2023-08-07T04:45:43;11.73;;;6.32;;
71947;SDS011;63257;55.082;38.772;2023-08-07T04:48:10;12.27;;;6.28;;
71947;SDS011;63257;55.082;38.772;2023-08-07T04:50:39;8.90;;;6.23;;
71947;SDS011;63257;55.082;38.772;2023-08-07T04:53:05;9.10;;;6.10;;
71947;SDS011;63257;55.082;38.772;2023-08-07T04:55:31;13.05;;;7.32;;
71947;SDS011;63257;55.082;38.772;2023-08-07T04:57:57;9.50;;;6.10;;
71947;SDS011;63257;55.082;38.772;2023-08-07T05:00:23;7.82;;;5.68;;
71947;SDS011;63257;55.082;38.772;2023-08-07T05:02:49;13.95;;;8.00;;
71947;SDS011;63257;55.082;38.772;2023-08-07T05:05:16;9.15;;;6.10;;
71947;SDS011;63257;55.082;38.772;2023-08-07T05:07:43;10.67;;;5.93;;
71947;SDS011;63257;55.082;38.772;2023-08-07T05:10:09;11.00;;;6.40;;
71947;SDS011;63257;55.082;38.772;2023-08-07T05:12:35;9.15;;;5.97;;
71947;SDS011;63257;55.082;38.772;2023-08-07T05:15:01;11.60;;;5.93;;
71947;SDS011;63257;55.082;38.772;2023-08-07T05:18:18;9.15;;;5.55;;
71947;SDS011;63257;55.082;38.772;2023-08-07T05:20:44;8.93;;;6.32;;
71947;SDS011;63257;55.082;38.772;2023-08-07T05:23:10;11.20;;;5.90;;
71947;SDS011;63257;55.082;38.772;2023-08-07T05:25:37;9.25;;;6.13;;
71947;SDS011;63257;55.082;38.772;2023-08-07T05:28:03;10.07;;;6.60;;
71947;SDS011;63257;55.082;38.772;2023-08-07T05:30:29;12.85;;;8.15;;
71947;SDS011;63257;55.082;38.772;2023-08-07T05:32:55;11.95;;;7.63;;
71947;SDS011;63257;55.082;38.772;2023-08-07T05:35:21;8.67;;;6.50;;
71947;SDS011;63257;55.082;38.772;2023-08-07T05:37:46;8.57;;;5.50;;
71947;SDS011;63257;55.082;38.772;2023-08-07T05:40:12;10.20;;;6.50;;
71947;SDS011;63257;55.082;38.772;2023-08-07T05:42:38;9.55;;;6.60;;
71947;SDS011;63257;55.082;38.772;2023-08-07T05:45:06;12.88;;;7.30;;
71947;SDS011;63257;55.082;38.772;2023-08-07T05:47:34;10.10;;;6.90;;
71947;SDS011;63257;55.082;38.772;2023-08-07T05:50:00;9.25;;;6.60;;
71947;SDS011;63257;55.082;38.772;2023-08-07T05:52:32;10.18;;;5.85;;
71947;SDS011;63257;55.082;38.772;2023-08-07T05:54:58;10.47;;;6.37;;
71947;SDS011;63257;55.082;38.772;2023-08-07T05:57:23;9.68;;;6.25;;
71947;SDS011;63257;55.082;38.772;2023-08-07T05:59:49;11.65;;;7.32;;
71947;SDS011;63257;55.082;38.772;2023-08-07T06:02:15;15.90;;;7.80;;
71947;SDS011;63257;55.082;38.772;2023-08-07T06:04:41;12.93;;;6.50;;
71947;SDS011;63257;55.082;38.772;2023-08-07T06:07:07;12.65;;;7.95;;
71947;SDS011;63257;55.082;38.772;2023-08-07T06:09:32;13.27;;;6.38;;
71947;SDS011;63257;55.082;38.772;2023-08-07T06:11:59;14.83;;;8.23;;
71947;SDS011;63257;55.082;38.772;2023-08-07T06:14:25;11.88;;;7.00;;
71947;SDS011;63257;55.082;38.772;2023-08-07T06:16:51;12.15;;;6.47;;
71947;SDS011;63257;55.082;38.772;2023-08-07T06:19:17;12.50;;;5.80;;
71947;SDS011;63257;55.082;38.772;2023-08-07T06:21:45;9.90;;;5.82;;
71947;SDS011;63257;55.082;38.772;2023-08-07T06:24:12;11.43;;;5.60;;
71947;SDS011;63257;55.082;38.772;2023-08-07T06:26:38;9.65;;;5.60;;
71947;SDS011;63257;55.082;38.772;2023-08-07T06:29:04;12.35;;;5.70;;
71947;SDS011;63257;55.082;38.772;2023-08-07T06:31:30;12.93;;;5.60;;
71947;SDS011;63257;55.082;38.772;2023-08-07T06:33:56;9.57;;;5.37;;
71947;SDS011;63257;55.082;38.772;2023-08-07T06:36:22;9.60;;;6.05;;
71947;SDS011;63257;55.082;38.772;2023-08-07T06:38:48;7.43;;;5.17;;
71947;SDS011;63257;55.082;38.772;2023-08-07T06:41:13;12.15;;;5.25;;
71947;SDS011;63257;55.082;38.772;2023-08-07T06:43:39;8.07;;;4.97;;
71947;SDS011;63257;55.082;38.772;2023-08-07T06:46:05;10.95;;;5.18;;
71947;SDS011;63257;55.082;38.772;2023-08-07T06:48:31;10.60;;;4.73;;
71947;SDS011;63257;55.082;38.772;2023-08-07T06:50:57;11.00;;;4.28;;
71947;SDS011;63257;55.082;38.772;2023-08-07T06:53:23;8.45;;;4.40;;
71947;SDS011;63257;55.082;38.772;2023-08-07T06:55:49;8.82;;;4.60;;
71947;SDS011;63257;55.082;38.772;2023-08-07T06:58:15;10.68;;;4.50;;
71947;SDS011;63257;55.082;38.772;2023-08-07T07:00:41;11.20;;;6.33;;
71947;SDS011;63257;55.082;38.772;2023-08-07T07:03:06;9.98;;;4.28;;
71947;SDS011;63257;55.082;38.772;2023-08-07T07:05:35;11.60;;;4.47;;
71947;SDS011;63257;55.082;38.772;2023-08-07T07:08:00;10.97;;;4.67;;
71947;SDS011;63257;55.082;38.772;2023-08-07T07:10:26;10.80;;;4.60;;
71947;SDS011;63257;55.082;38.772;2023-08-07T07:12:52;11.43;;;4.53;;
71947;SDS011;63257;55.082;38.772;2023-08-07T07:15:18;10.70;;;4.13;;
71947;SDS011;63257;55.082;38.772;2023-08-07T07:17:43;9.07;;;4.30;;
71947;SDS011;63257;55.082;38.772;2023-08-07T07:20:09;11.95;;;4.72;;
71947;SDS011;63257;55.082;38.772;2023-08-07T07:22:36;9.30;;;4.30;;
71947;SDS011;63257;55.082;38.772;2023-08-07T07:25:02;12.53;;;8.83;;
71947;SDS011;63257;55.082;38.772;2023-08-07T07:27:30;7.13;;;4.50;;
71947;SDS011;63257;55.082;38.772;2023-08-07T07:29:56;6.47;;;4.05;;
71947;SDS011;63257;55.082;38.772;2023-08-07T07:32:22;9.80;;;4.43;;
71947;SDS011;63257;55.082;38.772;2023-08-07T07:34:49;11.68;;;4.50;;
71947;SDS011;63257;55.082;38.772;2023-08-07T07:37:15;9.70;;;3.97;;
71947;SDS011;63257;55.082;38.772;2023-08-07T07:39:42;10.75;;;4.20;;
71947;SDS011;63257;55.082;38.772;2023-08-07T07:42:09;8.03;;;3.57;;
71947;SDS011;63257;55.082;38.772;2023-08-07T07:44:34;10.13;;;4.00;;
71947;SDS011;63257;55.082;38.772;2023-08-07T07:47:05;8.75;;;3.95;;
71947;SDS011;63257;55.082;38.772;2023-08-07T07:49:32;7.97;;;4.10;;
71947;SDS011;63257;55.082;38.772;2023-08-07T07:51:58;12.25;;;4.55;;
71947;SDS011;63257;55.082;38.772;2023-08-07T07:54:24;8.13;;;4.20;;
71947;SDS011;63257;55.082;38.772;2023-08-07T07:56:50;9.85;;;4.55;;
71947;SDS011;63257;55.082;38.772;2023-08-07T07:59:16;9.80;;;4.07;;
71947;SDS011;63257;55.082;38.772;2023-08-07T08:01:41;10.43;;;5.27;;
71947;SDS011;63257;55.082;38.772;2023-08-07T08:04:07;11.60;;;4.75;;
71947;SDS011;63257;55.082;38.772;2023-08-07T08:06:35;13.65;;;4.60;;
71947;SDS011;63257;55.082;38.772;2023-08-07T08:09:01;9.83;;;5.43;;
71947;SDS011;63257;55.082;38.772;2023-08-07T08:11:30;8.32;;;5.00;;
71947;SDS011;63257;55.082;38.772;2023-08-07T08:13:56;8.27;;;4.40;;
71947;SDS011;63257;55.082;38.772;2023-08-07T08:16:22;8.00;;;4.32;;
71947;SDS011;63257;55.082;38.772;2023-08-07T08:18:48;11.33;;;4.40;;
71947;SDS011;63257;55.082;38.772;2023-08-07T08:21:14;8.23;;;4.57;;
71947;SDS011;63257;55.082;38.772;2023-08-07T08:23:40;8.10;;;4.50;;
71947;SDS011;63257;55.082;38.772;2023-08-07T08:26:06;11.63;;;4.57;;
71947;SDS011;63257;55.082;38.772;2023-08-07T08:28:32;8.48;;;4.18;;
71947;SDS011;63257;55.082;38.772;2023-08-07T08:30:58;6.93;;;4.40;;
71947;SDS011;63257;55.082;38.772;2023-08-07T08:33:24;7.63;;;4.33;;
71947;SDS011;63257;55.082;38.772;2023-08-07T08:35:50;9.05;;;4.95;;
71947;SDS011;63257;55.082;38.772;2023-08-07T08:38:16;12.27;;;7.10;;
71947;SDS011;63257;55.082;38.772;2023-08-07T08:40:43;8.60;;;4.85;;
71947;SDS011;63257;55.082;38.772;2023-08-07T08:43:10;7.85;;;4.65;;
71947;SDS011;63257;55.082;38.772;2023-08-07T08:45:39;9.50;;;4.50;;
71947;SDS011;63257;55.082;38.772;2023-08-07T08:48:06;7.93;;;4.45;;
71947;SDS011;63257;55.082;38.772;2023-08-07T08:50:36;8.05;;;4.38;;
71947;SDS011;63257;55.082;38.772;2023-08-07T08:53:04;7.55;;;4.10;;
71947;SDS011;63257;55.082;38.772;2023-08-07T08:55:30;7.45;;;4.35;;
71947;SDS011;63257;55.082;38.772;2023-08-07T08:57:57;7.60;;;3.90;;
71947;SDS011;63257;55.082;38.772;2023-08-07T09:00:26;7.13;;;4.22;;
71947;SDS011;63257;55.082;38.772;2023-08-07T09:02:55;7.07;;;4.07;;
71947;SDS011;63257;55.082;38.772;2023-08-07T09:05:20;8.05;;;4.40;;
71947;SDS011;63257;55.082;38.772;2023-08-07T09:07:47;9.23;;;4.67;;
71947;SDS011;63257;55.082;38.772;2023-08-07T09:10:13;11.20;;;4.15;;
71947;SDS011;63257;55.082;38.772;2023-08-07T09:12:40;10.68;;;4.88;;
71947;SDS011;63257;55.082;38.772;2023-08-07T09:15:08;10.70;;;4.80;;
71947;SDS011;63257;55.082;38.772;2023-08-07T09:17:38;11.10;;;4.43;;
71947;SDS011;63257;55.082;38.772;2023-08-07T09:20:06;9.37;;;4.57;;
71947;SDS011;63257;55.082;38.772;2023-08-07T09:22:38;8.20;;;4.50;;
71947;SDS011;63257;55.082;38.772;2023-08-07T09:25:08;7.65;;;4.28;;
71947;SDS011;63257;55.082;38.772;2023-08-07T09:27:36;7.53;;;4.05;;
71947;SDS011;63257;55.082;38.772;2023-08-07T09:30:04;11.48;;;4.88;;
71947;SDS011;63257;55.082;38.772;2023-08-07T09:32:33;7.63;;;5.20;;
71947;SDS011;63257;55.082;38.772;2023-08-07T09:35:01;10.13;;;7.10;;
71947;SDS011;63257;55.082;38.772;2023-08-07T09:37:29;9.70;;;4.82;;
71947;SDS011;63257;55.082;38.772;2023-08-07T09:39:55;9.37;;;5.00;;
71947;SDS011;63257;55.082;38.772;2023-08-07T09:42:21;9.45;;;5.28;;
71947;SDS011;63257;55.082;38.772;2023-08-07T09:44:47;7.15;;;4.72;;
71947;SDS011;63257;55.082;38.772;2023-08-07T09:47:15;8.45;;;4.95;;
71947;SDS011;63257;55.082;38.772;2023-08-07T09:49:42;7.88;;;5.40;;
71947;SDS011;63257;55.082;38.772;2023-08-07T09:52:09;7.93;;;5.28;;
71947;SDS011;63257;55.082;38.772;2023-08-07T09:54:38;10.23;;;5.97;;
71947;SDS011;63257;55.082;38.772;2023-08-07T09:57:05;7.68;;;5.22;;
71947;SDS011;63257;55.082;38.772;2023-08-07T09:59:32;10.40;;;4.90;;
71947;SDS011;63257;55.082;38.772;2023-08-07T10:01:59;10.00;;;5.88;;
71947;SDS011;63257;55.082;38.772;2023-08-07T10:04:29;8.43;;;5.90;;
71947;SDS011;63257;55.082;38.772;2023-08-07T10:06:56;7.63;;;5.60;;
71947;SDS011;63257;55.082;38.772;2023-08-07T10:09:22;11.48;;;5.50;;
71947;SDS011;63257;55.082;38.772;2023-08-07T10:11:49;10.57;;;5.65;;
71947;SDS011;63257;55.082;38.772;2023-08-07T10:14:16;7.45;;;5.60;;
71947;SDS011;63257;55.082;38.772;2023-08-07T10:16:43;11.80;;;5.68;;
71947;SDS011;63257;55.082;38.772;2023-08-07T10:19:09;7.95;;;5.18;;
71947;SDS011;63257;55.082;38.772;2023-08-07T10:21:36;9.13;;;5.32;;
71947;SDS011;63257;55.082;38.772;2023-08-07T10:24:04;8.48;;;5.25;;
71947;SDS011;63257;55.082;38.772;2023-08-07T10:26:34;7.63;;;5.90;;
71947;SDS011;63257;55.082;38.772;2023-08-07T10:29:04;11.48;;;6.72;;
71947;SDS011;63257;55.082;38.772;2023-08-07T10:31:32;11.02;;;6.70;;
71947;SDS011;63257;55.082;38.772;2023-08-07T10:34:01;8.45;;;5.75;;
71947;SDS011;63257;55.082;38.772;2023-08-07T10:36:33;8.80;;;5.93;;
71947;SDS011;63257;55.082;38.772;2023-08-07T10:39:07;7.73;;;5.90;;
71947;SDS011;63257;55.082;38.772;2023-08-07T10:41:45;9.55;;;6.20;;
71947;SDS011;63257;55.082;38.772;2023-08-07T10:44:18;9.77;;;6.00;;
71947;SDS011;63257;55.082;38.772;2023-08-07T10:46:48;12.07;;;6.15;;
71947;SDS011;63257;55.082;38.772;2023-08-07T10:49:31;10.40;;;5.93;;
71947;SDS011;63257;55.082;38.772;2023-08-07T10:54:45;9.82;;;5.57;;
71947;SDS011;63257;55.082;38.772;2023-08-07T10:57:12;9.40;;;5.70;;
71947;SDS011;63257;55.082;38.772;2023-08-07T11:02:30;10.73;;;5.60;;
71947;SDS011;63257;55.082;38.772;2023-08-07T11:04:58;12.63;;;10.17;;
71947;SDS011;63257;55.082;38.772;2023-08-07T11:07:25;14.88;;;11.45;;
71947;SDS011;63257;55.082;38.772;2023-08-07T11:09:52;9.75;;;6.55;;
71947;SDS011;63257;55.082;38.772;2023-08-07T11:12:18;10.50;;;6.00;;
71947;SDS011;63257;55.082;38.772;2023-08-07T11:14:44;8.45;;;5.70;;
71947;SDS011;63257;55.082;38.772;2023-08-07T11:17:10;12.83;;;6.30;;
71947;SDS011;63257;55.082;38.772;2023-08-07T11:19:37;11.30;;;5.68;;
71947;SDS011;63257;55.082;38.772;2023-08-07T11:22:04;9.57;;;6.00;;
71947;SDS011;63257;55.082;38.772;2023-08-07T11:24:30;10.20;;;5.40;;
71947;SDS011;63257;55.082;38.772;2023-08-07T11:26:56;9.30;;;6.43;;
71947;SDS011;63257;55.082;38.772;2023-08-07T11:29:22;13.35;;;8.05;;
71947;SDS011;63257;55.082;38.772;2023-08-07T11:31:51;9.85;;;6.20;;
71947;SDS011;63257;55.082;38.772;2023-08-07T11:34:17;9.77;;;6.73;;
71947;SDS011;63257;55.082;38.772;2023-08-07T11:36:46;8.43;;;6.07;;
71947;SDS011;63257;55.082;38.772;2023-08-07T11:39:12;10.63;;;6.05;;
71947;SDS011;63257;55.082;38.772;2023-08-07T11:41:39;8.95;;;5.75;;
71947;SDS011;63257;55.082;38.772;2023-08-07T11:44:08;8.05;;;5.90;;
71947;SDS011;63257;55.082;38.772;2023-08-07T11:46:35;8.75;;;5.78;;
71947;SDS011;63257;55.082;38.772;2023-08-07T11:49:01;8.85;;;5.90;;
71947;SDS011;63257;55.082;38.772;2023-08-07T11:51:29;9.50;;;6.28;;
71947;SDS011;63257;55.082;38.772;2023-08-07T11:53:55;10.35;;;6.05;;
71947;SDS011;63257;55.082;38.772;2023-08-07T11:56:24;9.68;;;6.78;;
71947;SDS011;63257;55.082;38.772;2023-08-07T11:58:51;7.38;;;5.75;;
71947;SDS011;63257;55.082;38.772;2023-08-07T12:01:23;8.38;;;6.07;;
71947;SDS011;63257;55.082;38.772;2023-08-07T12:06:34;9.38;;;5.15;;
71947;SDS011;63257;55.082;38.772;2023-08-07T12:09:01;11.63;;;6.00;;
71947;SDS011;63257;55.082;38.772;2023-08-07T12:11:30;9.93;;;6.63;;
71947;SDS011;63257;55.082;38.772;2023-08-07T12:13:59;10.48;;;7.00;;
71947;SDS011;63257;55.082;38.772;2023-08-07T12:16:25;11.25;;;6.60;;
71947;SDS011;63257;55.082;38.772;2023-08-07T12:18:51;8.40;;;6.00;;
71947;SDS011;63257;55.082;38.772;2023-08-07T12:21:21;9.23;;;6.43;;
71947;SDS011;63257;55.082;38.772;2023-08-07T12:23:51;9.25;;;6.82;;
71947;SDS011;63257;55.082;38.772;2023-08-07T12:26:20;10.70;;;6.18;;
71947;SDS011;63257;55.082;38.772;2023-08-07T12:28:46;7.43;;;5.23;;
71947;SDS011;63257;55.082;38.772;2023-08-07T12:31:12;7.93;;;5.40;;
71947;SDS011;63257;55.082;38.772;2023-08-07T12:33:37;7.68;;;5.43;;
71947;SDS011;63257;55.082;38.772;2023-08-07T12:36:03;8.20;;;5.60;;
71947;SDS011;63257;55.082;38.772;2023-08-07T12:38:29;8.63;;;6.00;;
71947;SDS011;63257;55.082;38.772;2023-08-07T12:40:56;9.02;;;6.30;;
71947;SDS011;63257;55.082;38.772;2023-08-07T12:43:22;8.35;;;6.30;;
71947;SDS011;63257;55.082;38.772;2023-08-07T12:45:48;11.55;;;6.25;;
71947;SDS011;63257;55.082;38.772;2023-08-07T12:48:14;7.13;;;6.10;;
71947;SDS011;63257;55.082;38.772;2023-08-07T12:50:40;10.80;;;5.40;;
71947;SDS011;63257;55.082;38.772;2023-08-07T12:53:06;7.22;;;5.47;;
71947;SDS011;63257;55.082;38.772;2023-08-07T12:55:34;7.23;;;6.27;;
71947;SDS011;63257;55.082;38.772;2023-08-07T12:58:00;8.82;;;6.47;;
71947;SDS011;63257;55.082;38.772;2023-08-07T13:00:26;7.93;;;6.10;;
71947;SDS011;63257;55.082;38.772;2023-08-07T13:02:52;7.63;;;5.90;;
71947;SDS011;63257;55.082;38.772;2023-08-07T13:05:21;9.60;;;5.85;;
71947;SDS011;63257;55.082;38.772;2023-08-07T13:07:47;10.13;;;6.10;;
71947;SDS011;63257;55.082;38.772;2023-08-07T13:10:14;7.60;;;5.80;;
71947;SDS011;63257;55.082;38.772;2023-08-07T13:12:42;8.75;;;5.80;;
71947;SDS011;63257;55.082;38.772;2023-08-07T13:15:10;8.98;;;6.43;;
71947;SDS011;63257;55.082;38.772;2023-08-07T13:17:41;7.85;;;6.30;;
71947;SDS011;63257;55.082;38.772;2023-08-07T13:20:08;8.93;;;6.27;;
71947;SDS011;63257;55.082;38.772;2023-08-07T13:22:36;9.32;;;6.55;;
71947;SDS011;63257;55.082;38.772;2023-08-07T13:25:03;8.88;;;6.93;;
71947;SDS011;63257;55.082;38.772;2023-08-07T13:27:31;9.32;;;6.40;;
71947;SDS011;63257;55.082;38.772;2023-08-07T13:29:58;11.10;;;5.65;;
71947;SDS011;63257;55.082;38.772;2023-08-07T13:32:24;8.87;;;6.60;;
71947;SDS011;63257;55.082;38.772;2023-08-07T13:34:51;11.20;;;6.68;;
71947;SDS011;63257;55.082;38.772;2023-08-07T13:37:17;9.98;;;6.40;;
71947;SDS011;63257;55.082;38.772;2023-08-07T13:39:43;8.70;;;6.28;;
71947;SDS011;63257;55.082;38.772;2023-08-07T13:42:09;9.43;;;6.40;;
71947;SDS011;63257;55.082;38.772;2023-08-07T13:44:36;10.68;;;6.88;;
71947;SDS011;63257;55.082;38.772;2023-08-07T13:47:04;8.68;;;6.63;;
71947;SDS011;63257;55.082;38.772;2023-08-07T13:49:30;9.45;;;6.57;;
71947;SDS011;63257;55.082;38.772;2023-08-07T13:51:55;10.93;;;6.93;;
71947;SDS011;63257;55.082;38.772;2023-08-07T13:54:21;8.90;;;7.05;;
71947;SDS011;63257;55.082;38.772;2023-08-07T13:56:47;12.35;;;7.65;;
71947;SDS011;63257;55.082;38.772;2023-08-07T13:59:14;9.47;;;7.40;;
71947;SDS011;63257;55.082;38.772;2023-08-07T14:01:39;11.38;;;7.05;;
71947;SDS011;63257;55.082;38.772;2023-08-07T14:04:05;10.10;;;6.68;;
71947;SDS011;63257;55.082;38.772;2023-08-07T14:06:31;11.02;;;5.97;;
71947;SDS011;63257;55.082;38.772;2023-08-07T14:08:57;11.30;;;7.07;;
71947;SDS011;63257;55.082;38.772;2023-08-07T14:11:23;10.52;;;6.85;;
71947;SDS011;63257;55.082;38.772;2023-08-07T14:13:53;11.25;;;6.85;;
71947;SDS011;63257;55.082;38.772;2023-08-07T14:16:19;9.87;;;6.17;;
71947;SDS011;63257;55.082;38.772;2023-08-07T14:18:44;10.15;;;6.88;;
71947;SDS011;63257;55.082;38.772;2023-08-07T14:21:10;7.10;;;6.33;;
71947;SDS011;63257;55.082;38.772;2023-08-07T14:23:36;15.95;;;6.07;;
71947;SDS011;63257;55.082;38.772;2023-08-07T14:26:02;12.68;;;6.35;;
71947;SDS011;63257;55.082;38.772;2023-08-07T14:28:28;7.83;;;6.20;;
71947;SDS011;63257;55.082;38.772;2023-08-07T14:30:56;8.23;;;5.55;;
71947;SDS011;63257;55.082;38.772;2023-08-07T14:33:22;8.05;;;6.97;;
71947;SDS011;63257;55.082;38.772;2023-08-07T14:35:48;9.40;;;6.20;;
71947;SDS011;63257;55.082;38.772;2023-08-07T14:38:14;10.07;;;5.95;;
71947;SDS011;63257;55.082;38.772;2023-08-07T14:40:40;8.80;;;6.63;;
71947;SDS011;63257;55.082;38.772;2023-08-07T14:43:06;8.85;;;6.03;;
71947;SDS011;63257;55.082;38.772;2023-08-07T14:45:32;8.00;;;6.60;;